Time;durP1;ratioP1;P1;durP2;ratioP2;P2;SDS_P1;SDS_P2;PMS_P1;PMS_P2;Temp;Humidity;BMP_temperature;BMP_pressure;BME280_temperature;BME280_humidity;BME280_pressure;Samples;Min_cycle;Max_cycle;Signal;HPM_P1;HPM_P2
2022/04/11 00:02:01;;;;;;;3.85;2.20;;;2.70;99.90;;;;;;4984156;28;20555;-78
2022/04/11 00:04:28;;;;;;;2.72;1.58;;;2.60;99.90;;;;;;4984657;28;20073;-79
2022/04/11 00:06:54;;;;;;;3.47;1.20;;;2.10;99.90;;;;;;4982162;28;20046;-78
2022/04/11 00:09:19;;;;;;;2.85;1.58;;;2.50;99.90;;;;;;4979711;28;20035;-78
2022/04/11 00:11:46;;;;;;;5.38;1.92;;;1.40;99.90;;;;;;4983763;28;20125;-79
2022/04/11 00:14:12;;;;;;;4.20;1.60;;;2.70;99.90;;;;;;4985436;28;20058;-79
2022/04/11 00:16:39;;;;;;;4.65;1.77;;;3.10;99.90;;;;;;4970116;28;20053;-79
2022/04/11 00:19:05;;;;;;;4.20;1.23;;;2.40;99.90;;;;;;4985987;28;20034;-79
2022/04/11 00:21:31;;;;;;;2.35;1.10;;;2.60;99.90;;;;;;4987628;28;20533;-79
2022/04/11 00:23:57;;;;;;;1.40;1.00;;;3.20;99.90;;;;;;4986160;28;20047;-79
2022/04/11 00:26:22;;;;;;;3.70;1.40;;;2.50;99.90;;;;;;4985503;28;20050;-79
2022/04/11 00:28:48;;;;;;;2.60;1.10;;;2.10;99.90;;;;;;5001140;28;20442;-79
2022/04/11 00:31:13;;;;;;;3.40;1.77;;;2.40;99.90;;;;;;4987834;28;20060;-79
2022/04/11 00:33:39;;;;;;;2.13;1.10;;;2.40;99.90;;;;;;4984224;28;20154;-78
2022/04/11 00:36:05;;;;;;;1.42;1.33;;;3.00;99.90;;;;;;4986741;28;20132;-79
2022/04/11 00:38:30;;;;;;;6.75;1.08;;;3.80;99.90;;;;;;4984110;28;20137;-79
2022/04/11 00:40:56;;;;;;;3.67;1.20;;;;;;;;;;4988449;28;20030;-79
2022/04/11 00:43:33;;;;;;;2.50;1.15;;;2.40;99.90;;;;;;5003731;28;20038;-78
2022/04/11 00:45:59;;;;;;;4.65;1.20;;;2.00;99.90;;;;;;4971718;28;20051;-78
2022/04/11 00:48:25;;;;;;;4.35;1.65;;;2.20;99.90;;;;;;4987797;28;20045;-78
2022/04/11 00:50:54;;;;;;;4.95;1.20;;;4.60;99.90;;;;;;4969654;28;20065;-79
2022/04/11 00:53:21;;;;;;;2.10;1.33;;;2.20;99.90;;;;;;4986358;28;20056;-78
2022/04/11 00:55:47;;;;;;;5.30;1.30;;;1.70;99.90;;;;;;4987661;28;20480;-79
2022/04/11 00:58:13;;;;;;;3.45;1.00;;;2.20;99.90;;;;;;4963689;28;20089;-79
2022/04/11 01:00:40;;;;;;;2.85;1.17;;;2.70;99.90;;;;;;4981628;28;20451;-78
2022/04/11 01:03:06;;;;;;;3.70;1.13;;;2.20;99.90;;;;;;4983831;28;20042;-79
2022/04/11 01:05:31;;;;;;;3.35;1.00;;;1.60;99.90;;;;;;4984215;28;20045;-79
2022/04/11 01:08:07;;;;;;;2.47;0.98;;;2.20;99.90;;;;;;4986687;28;20501;-79
2022/04/11 01:10:33;;;;;;;1.52;0.70;;;2.00;99.90;;;;;;4988956;28;20038;-78
2022/04/11 01:13:00;;;;;;;2.15;0.55;;;3.00;99.90;;;;;;4985004;28;20383;-79
2022/04/11 01:15:26;;;;;;;4.15;0.90;;;2.00;99.90;;;;;;4987516;28;20038;-79
2022/04/11 01:17:52;;;;;;;5.30;1.15;;;2.00;99.90;;;;;;4985614;28;20347;-78
2022/04/11 01:20:19;;;;;;;1.20;0.80;;;2.50;99.90;;;;;;4967564;28;20061;-79
2022/04/11 01:22:46;;;;;;;4.30;1.08;;;1.90;99.90;;;;;;4954445;28;20054;-79
2022/04/11 01:25:12;;;;;;;2.08;1.33;;;2.40;99.90;;;;;;4970796;28;20046;-79
2022/04/11 01:27:38;;;;;;;3.22;0.90;;;1.80;99.90;;;;;;4984486;28;20612;-79
2022/04/11 01:30:06;;;;;;;2.72;0.88;;;2.00;99.90;;;;;;4985036;28;20078;-79
2022/04/11 01:32:32;;;;;;;1.48;0.93;;;2.00;99.90;;;;;;4965694;28;20046;-78
2022/04/11 01:34:57;;;;;;;2.38;0.80;;;1.50;99.90;;;;;;4986689;28;20122;-79
2022/04/11 01:37:24;;;;;;;8.63;1.48;;;1.60;99.90;;;;;;4984557;28;20056;-79
2022/04/11 01:39:49;;;;;;;1.52;1.23;;;1.70;99.90;;;;;;4986384;28;20038;-79
2022/04/11 01:42:15;;;;;;;2.70;1.00;;;1.50;99.90;;;;;;4983949;28;20100;-78
2022/04/11 01:44:41;;;;;;;3.47;1.13;;;3.60;99.90;;;;;;4987510;28;20506;-79
2022/04/11 01:47:07;;;;;;;2.40;0.98;;;1.90;99.90;;;;;;4984678;28;20061;-79
2022/04/11 01:49:33;;;;;;;3.85;1.30;;;1.90;99.90;;;;;;4985102;28;20050;-79
2022/04/11 01:51:58;;;;;;;1.58;0.90;;;2.80;99.90;;;;;;4979761;28;20470;-79
2022/04/11 01:54:24;;;;;;;2.47;1.40;;;4.20;99.90;;;;;;4986463;28;20084;-79
2022/04/11 01:56:50;;;;;;;5.93;1.30;;;1.90;99.90;;;;;;4986437;28;20078;-79
2022/04/11 01:59:16;;;;;;;1.95;0.93;;;4.20;99.90;;;;;;4979659;28;20402;-79
2022/04/11 02:01:43;;;;;;;2.67;1.05;;;1.80;99.90;;;;;;4982017;28;20046;-79
2022/04/11 02:04:09;;;;;;;3.22;0.95;;;2.00;99.90;;;;;;4987249;28;20042;-79
2022/04/11 02:06:35;;;;;;;1.63;0.82;;;1.80;99.90;;;;;;4984329;28;20491;-79
2022/04/11 02:09:00;;;;;;;4.50;1.02;;;4.10;99.90;;;;;;4984757;28;20042;-79
2022/04/11 02:11:26;;;;;;;3.60;0.93;;;1.70;99.90;;;;;;4968838;28;20042;-79
2022/04/11 02:13:52;;;;;;;6.30;1.92;;;1.40;99.90;;;;;;4980243;28;20046;-79
2022/04/11 02:16:18;;;;;;;3.67;1.00;;;1.90;99.90;;;;;;4966434;28;20410;-78
2022/04/11 02:18:43;;;;;;;2.92;0.85;;;3.10;99.90;;;;;;4967020;28;20069;-78
2022/04/11 02:21:09;;;;;;;3.47;0.80;;;1.90;99.90;;;;;;4968002;28;20035;-79
2022/04/11 02:23:35;;;;;;;4.13;1.15;;;3.70;99.90;;;;;;4983946;28;20086;-79
2022/04/11 02:26:01;;;;;;;3.35;0.93;;;1.80;99.90;;;;;;4983797;28;20127;-79
2022/04/11 02:28:26;;;;;;;11.88;0.90;;;1.80;99.90;;;;;;4982439;28;20486;-80
2022/04/11 02:30:52;;;;;;;3.70;1.05;;;4.50;99.90;;;;;;4982476;28;20030;-79
2022/04/11 02:33:18;;;;;;;1.80;0.77;;;1.70;99.90;;;;;;4961374;28;20407;-79
2022/04/11 02:35:43;;;;;;;2.15;0.77;;;1.90;99.90;;;;;;4983344;28;20143;-79
2022/04/11 02:38:09;;;;;;;3.00;0.65;;;0.70;99.90;;;;;;4985864;28;20137;-79
2022/04/11 02:40:35;;;;;;;2.92;1.17;;;1.90;99.90;;;;;;4969101;28;20045;-79
2022/04/11 02:43:00;;;;;;;2.30;0.90;;;1.70;99.90;;;;;;4968907;28;20045;-79
2022/04/11 02:45:26;;;;;;;1.80;1.55;;;1.90;99.90;;;;;;4983670;28;20045;-79
2022/04/11 02:47:52;;;;;;;5.18;1.27;;;3.60;99.90;;;;;;4968992;28;20042;-79
2022/04/11 02:50:17;;;;;;;2.88;1.13;;;1.60;99.90;;;;;;4983577;28;20041;-78
2022/04/11 02:52:43;;;;;;;2.15;1.02;;;1.50;99.90;;;;;;4986123;28;20369;-79
2022/04/11 02:55:09;;;;;;;4.72;1.17;;;1.80;99.90;;;;;;4983743;28;20130;-79
2022/04/11 02:57:38;;;;;;;3.55;1.17;;;1.60;99.90;;;;;;4979352;28;20035;-79
2022/04/11 03:00:10;;;;;;;1.95;1.23;;;1.40;99.90;;;;;;4979648;28;20414;-79
2022/04/11 03:02:36;;;;;;;1.85;1.00;;;1.80;99.90;;;;;;4983246;28;20062;-79
2022/04/11 03:05:02;;;;;;;1.70;1.02;;;3.20;99.90;;;;;;4968341;28;20399;-79
2022/04/11 03:07:28;;;;;;;1.23;0.88;;;1.80;99.90;;;;;;4983616;28;20049;-79
2022/04/11 03:09:54;;;;;;;2.83;0.88;;;3.90;99.90;;;;;;4963160;28;20487;-79
2022/04/11 03:12:20;;;;;;;3.85;1.02;;;1.30;99.90;;;;;;4982494;28;20038;-79
2022/04/11 03:14:49;;;;;;;4.13;1.00;;;4.30;99.90;;;;;;4982468;28;20054;-79
2022/04/11 03:17:15;;;;;;;1.42;1.00;;;3.70;99.90;;;;;;4979502;28;20050;-79
2022/04/11 03:19:42;;;;;;;3.88;1.20;;;1.60;99.90;;;;;;4983362;28;20045;-79
2022/04/11 03:22:09;;;;;;;2.20;1.30;;;1.60;99.90;;;;;;4984370;28;20049;-79
2022/04/11 03:24:35;;;;;;;5.55;1.77;;;1.30;99.90;;;;;;4978355;28;20564;-79
2022/04/11 03:27:01;;;;;;;1.38;1.20;;;1.20;99.90;;;;;;4961134;28;20042;-79
2022/04/11 03:29:27;;;;;;;3.17;1.73;;;1.50;99.90;;;;;;4962274;28;20129;-79
2022/04/11 03:31:52;;;;;;;4.07;1.58;;;1.10;99.90;;;;;;4964440;28;20463;-78
2022/04/11 03:34:18;;;;;;;2.70;1.35;;;1.60;99.90;;;;;;4986707;28;20039;-78
2022/04/11 03:36:44;;;;;;;3.42;1.38;;;1.60;99.90;;;;;;4982907;28;20058;-79
2022/04/11 03:39:09;;;;;;;3.65;1.40;;;1.40;99.90;;;;;;4960275;28;20046;-79
2022/04/11 03:41:35;;;;;;;1.92;1.30;;;1.60;99.90;;;;;;4977342;28;20069;-79
2022/04/11 03:44:01;;;;;;;8.20;1.95;;;1.70;99.90;;;;;;4968152;28;20053;-79
2022/04/11 03:46:28;;;;;;;4.03;1.50;;;1.70;99.90;;;;;;4982369;28;20125;-79
2022/04/11 03:48:53;;;;;;;2.30;1.48;;;3.20;99.90;;;;;;4987163;28;20050;-78
2022/04/11 03:51:20;;;;;;;4.78;1.67;;;1.70;99.90;;;;;;4971306;28;20042;-79
2022/04/11 03:53:47;;;;;;;3.75;1.35;;;1.70;99.90;;;;;;4968104;28;20077;-79
2022/04/11 03:56:14;;;;;;;2.55;1.10;;;1.70;99.90;;;;;;4983927;28;20043;-79
2022/04/11 03:58:40;;;;;;;1.48;0.98;;;1.60;99.90;;;;;;4988329;28;20071;-79
2022/04/11 04:01:06;;;;;;;2.55;1.20;;;3.70;99.90;;;;;;4988308;28;20042;-79
2022/04/11 04:03:32;;;;;;;4.53;1.23;;;1.60;99.90;;;;;;4963803;28;20050;-79
2022/04/11 04:05:58;;;;;;;5.22;0.95;;;4.10;99.90;;;;;;4988906;28;20113;-79
2022/04/11 04:08:23;;;;;;;1.88;1.48;;;1.10;99.90;;;;;;4988699;28;20050;-79
2022/04/11 04:10:49;;;;;;;3.30;0.90;;;1.40;99.90;;;;;;4979262;28;20138;-79
2022/04/11 04:13:16;;;;;;;4.88;1.38;;;1.20;99.90;;;;;;4960074;28;20253;-79
2022/04/11 04:15:43;;;;;;;4.50;1.42;;;1.50;99.90;;;;;;4988445;28;20467;-79
2022/04/11 04:18:10;;;;;;;2.17;1.00;;;;;;;;;;4982658;28;20068;-79
2022/04/11 04:20:36;;;;;;;3.90;1.17;;;1.60;99.90;;;;;;4971937;28;20045;-79
2022/04/11 04:23:02;;;;;;;4.43;1.85;;;1.90;99.90;;;;;;4984277;28;20050;-78
2022/04/11 04:25:27;;;;;;;4.05;0.77;;;1.70;99.90;;;;;;4985391;28;20047;-79
2022/04/11 04:27:53;;;;;;;4.93;1.42;;;3.40;99.90;;;;;;4988865;28;20126;-79
2022/04/11 04:30:19;;;;;;;4.50;1.20;;;2.30;99.90;;;;;;4979636;28;20506;-79
2022/04/11 04:32:44;;;;;;;3.92;1.52;;;1.70;99.90;;;;;;4977438;28;20053;-79
2022/04/11 04:35:12;;;;;;;3.03;1.13;;;;;;;;;;4982059;28;20038;-79
2022/04/11 04:37:37;;;;;;;5.20;1.30;;;1.70;99.90;;;;;;5003337;28;20042;-79
2022/04/11 04:40:04;;;;;;;2.25;1.00;;;0.90;99.90;;;;;;4981882;28;20046;-79
2022/04/11 04:42:29;;;;;;;4.05;1.23;;;1.80;99.90;;;;;;4978812;28;20050;-79
2022/04/11 04:44:55;;;;;;;1.58;1.20;;;1.70;99.90;;;;;;4965896;28;20394;-79
2022/04/11 04:47:22;;;;;;;2.15;1.30;;;4.00;99.90;;;;;;4981004;28;20034;-79
2022/04/11 04:49:48;;;;;;;3.28;1.35;;;1.80;99.90;;;;;;4979864;28;20047;-79
2022/04/11 04:52:14;;;;;;;4.20;2.28;;;3.50;99.90;;;;;;4964963;28;20133;-79
2022/04/11 04:54:40;;;;;;;2.90;1.27;;;2.30;99.90;;;;;;4981442;28;20161;-79
2022/04/11 04:57:06;;;;;;;4.65;1.48;;;1.50;99.90;;;;;;4979650;28;20035;-79
2022/04/11 04:59:31;;;;;;;4.40;1.20;;;1.70;99.90;;;;;;4980072;28;20201;-79
2022/04/11 05:01:57;;;;;;;6.03;2.17;;;1.70;99.90;;;;;;4979968;28;20467;-79
2022/04/11 05:04:23;;;;;;;4.13;1.38;;;1.60;99.90;;;;;;4982697;28;20056;-79
2022/04/11 05:06:49;;;;;;;2.92;1.45;;;1.20;99.90;;;;;;4982654;28;20046;-79
2022/04/11 05:09:14;;;;;;;4.22;1.90;;;1.60;99.90;;;;;;4980598;28;20054;-79
2022/04/11 05:11:40;;;;;;;1.77;1.10;;;1.40;99.90;;;;;;4979352;28;20117;-79
2022/04/11 05:14:06;;;;;;;3.35;1.52;;;1.60;99.90;;;;;;4965030;28;20471;-79
2022/04/11 05:16:31;;;;;;;3.03;2.05;;;1.70;99.90;;;;;;4981260;28;20065;-79
2022/04/11 05:18:57;;;;;;;2.65;1.38;;;2.00;99.90;;;;;;4981287;28;20045;-80
2022/04/11 05:21:23;;;;;;;2.30;1.23;;;3.60;99.90;;;;;;4982509;28;20180;-79
2022/04/11 05:23:48;;;;;;;6.20;1.85;;;3.10;99.90;;;;;;4981788;28;20051;-79
2022/04/11 05:26:14;;;;;;;2.47;1.70;;;1.60;99.90;;;;;;4981913;28;20058;-79
2022/04/11 05:28:39;;;;;;;3.63;1.60;;;3.60;99.90;;;;;;4979911;28;20137;-80
2022/04/11 05:31:05;;;;;;;4.68;1.60;;;2.00;99.90;;;;;;4980983;28;20509;-80
2022/04/11 05:33:30;;;;;;;3.17;1.38;;;2.50;99.90;;;;;;4965223;28;20050;-79
2022/04/11 05:35:56;;;;;;;3.10;1.42;;;1.90;99.90;;;;;;4981685;28;20824;-79
2022/04/11 05:38:22;;;;;;;3.70;1.88;;;1.70;99.90;;;;;;4981523;28;20051;-80
2022/04/11 05:40:48;;;;;;;3.03;2.10;;;2.00;99.90;;;;;;4982453;28;20346;-79
2022/04/11 05:43:14;;;;;;;3.58;1.98;;;2.00;99.90;;;;;;4983716;28;20050;-79
2022/04/11 05:45:41;;;;;;;6.95;2.22;;;2.70;99.90;;;;;;4986162;28;20038;-79
2022/04/11 05:48:07;;;;;;;2.90;2.10;;;2.10;99.90;;;;;;4968899;28;20054;-78
2022/04/11 05:50:33;;;;;;;9.65;1.98;;;2.20;99.90;;;;;;4982281;28;20419;-80
2022/04/11 05:53:00;;;;;;;5.88;2.20;;;2.20;99.90;;;;;;4983268;28;20046;-79
2022/04/11 05:55:25;;;;;;;3.83;1.92;;;2.20;99.90;;;;;;4976348;28;20052;-79
2022/04/11 05:57:51;;;;;;;5.57;1.83;;;2.20;99.90;;;;;;4981635;28;20049;-79
2022/04/11 06:00:24;;;;;;;5.10;1.93;;;2.30;99.90;;;;;;4892873;28;10001106;-79
2022/04/11 06:02:50;;;;;;;5.72;2.00;;;2.00;99.90;;;;;;4978148;28;20934;-78
2022/04/11 06:05:16;;;;;;;4.00;2.10;;;2.10;99.90;;;;;;4979011;28;20046;-79
2022/04/11 06:07:42;;;;;;;2.38;1.40;;;4.60;99.90;;;;;;4977499;28;20372;-79
2022/04/11 06:10:08;;;;;;;4.30;2.33;;;2.30;99.90;;;;;;4977305;28;20133;-79
2022/04/11 06:12:34;;;;;;;3.72;1.95;;;2.50;99.90;;;;;;4965266;28;20038;-79
2022/04/11 06:15:00;;;;;;;9.27;2.20;;;2.60;99.90;;;;;;4984126;28;20046;-80
2022/04/11 06:17:26;;;;;;;3.08;1.98;;;2.60;99.90;;;;;;4975418;28;20042;-79
2022/04/11 06:19:53;;;;;;;5.20;2.22;;;2.60;99.90;;;;;;4979432;28;20030;-79
2022/04/11 06:22:19;;;;;;;4.28;2.35;;;2.70;99.90;;;;;;4978460;28;20101;-79
2022/04/11 06:24:46;;;;;;;3.38;1.73;;;4.90;99.90;;;;;;4972467;28;20043;-79
2022/04/11 06:27:12;;;;;;;4.15;1.45;;;3.00;99.90;;;;;;4980176;28;20378;-79
2022/04/11 06:29:39;;;;;;;2.83;1.33;;;2.30;99.90;;;;;;4979248;28;20395;-78
2022/04/11 06:32:05;;;;;;;4.40;1.52;;;4.70;99.90;;;;;;4961458;28;20042;-79
2022/04/11 06:34:36;;;;;;;5.13;1.85;;;2.90;99.90;;;;;;4976536;28;20363;-79
2022/04/11 06:37:02;;;;;;;5.13;2.10;;;2.80;99.90;;;;;;4980258;28;20409;-79
2022/04/11 06:39:28;;;;;;;2.67;1.75;;;3.00;99.90;;;;;;4982826;28;20176;-79
2022/04/11 06:41:54;;;;;;;5.53;1.70;;;2.90;99.90;;;;;;4978215;28;20038;-79
2022/04/11 06:44:20;;;;;;;3.42;1.10;;;2.90;99.90;;;;;;4960930;28;20057;-79
2022/04/11 06:46:45;;;;;;;2.70;1.05;;;2.70;99.90;;;;;;4973926;28;20507;-78
2022/04/11 06:49:11;;;;;;;6.70;1.92;;;2.90;99.90;;;;;;4977436;28;20105;-79
2022/04/11 06:51:37;;;;;;;3.97;1.83;;;;;;;;;;4965769;28;20540;-79
2022/04/11 06:54:04;;;;;;;6.30;1.40;;;3.30;99.90;;;;;;4962224;28;20053;-79
2022/04/11 06:56:29;;;;;;;2.40;1.40;;;3.60;99.90;;;;;;4963031;28;20129;-79
2022/04/11 06:58:55;;;;;;;2.85;1.20;;;2.90;99.90;;;;;;4980290;28;20153;-78
2022/04/11 07:01:21;;;;;;;4.72;1.42;;;2.90;99.90;;;;;;4984878;28;20042;-79
2022/04/11 07:03:46;;;;;;;2.90;1.33;;;3.50;99.90;;;;;;4979018;28;20054;-80
2022/04/11 07:06:12;;;;;;;5.07;1.27;;;3.60;99.90;;;;;;4985613;28;20098;-80
2022/04/11 07:08:38;;;;;;;9.15;1.58;;;3.60;99.90;;;;;;4978497;28;20043;-79
2022/04/11 07:11:04;;;;;;;2.45;1.20;;;3.70;99.90;;;;;;4977845;28;20133;-80
2022/04/11 07:13:30;;;;;;;2.45;0.85;;;4.20;99.90;;;;;;4979618;28;20035;-80
2022/04/11 07:15:56;;;;;;;3.53;1.25;;;3.80;99.90;;;;;;4982340;28;20094;-80
2022/04/11 07:18:25;;;;;;;5.05;1.10;;;3.80;99.90;;;;;;4981665;28;20494;-80
2022/04/11 07:20:51;;;;;;;2.55;1.10;;;4.30;99.90;;;;;;4981713;28;20093;-80
2022/04/11 07:23:17;;;;;;;2.05;1.15;;;4.00;99.90;;;;;;4982593;28;20454;-80
2022/04/11 07:25:43;;;;;;;4.38;1.08;;;4.20;99.90;;;;;;4990760;28;20128;-80
2022/04/11 07:28:08;;;;;;;1.55;0.90;;;4.10;99.90;;;;;;4986701;28;20498;-81
2022/04/11 07:30:34;;;;;;;1.30;1.05;;;4.20;99.90;;;;;;4984875;28;20049;-80
2022/04/11 07:33:00;;;;;;;5.18;1.00;;;4.30;99.90;;;;;;4982760;28;20093;-80
2022/04/11 07:35:25;;;;;;;5.40;1.10;;;4.70;99.90;;;;;;4985157;28;20046;-81
2022/04/11 07:37:51;;;;;;;7.65;0.77;;;4.40;99.90;;;;;;4985412;28;20054;-81
2022/04/11 07:40:17;;;;;;;2.80;0.80;;;4.50;99.90;;;;;;4981090;28;20038;-81
2022/04/11 07:42:42;;;;;;;2.92;1.30;;;4.60;99.90;;;;;;4986539;28;20042;-80
2022/04/11 07:45:08;;;;;;;4.30;1.38;;;4.60;99.90;;;;;;4984302;28;20038;-80
2022/04/11 07:47:34;;;;;;;5.78;2.30;;;4.70;99.90;;;;;;4991274;28;20049;-81
2022/04/11 07:50:00;;;;;;;3.38;1.33;;;4.80;99.90;;;;;;4965014;28;20034;-80
2022/04/11 07:52:26;;;;;;;6.93;1.70;;;4.90;99.90;;;;;;4981194;28;20130;-79
2022/04/11 07:54:52;;;;;;;5.78;1.10;;;4.90;99.90;;;;;;4985139;28;20614;-79
2022/04/11 07:57:18;;;;;;;3.63;1.20;;;5.00;99.90;;;;;;4981133;28;20050;-80
2022/04/11 07:59:44;;;;;;;3.90;1.17;;;5.50;99.90;;;;;;4978218;28;20121;-79
2022/04/11 08:02:10;;;;;;;4.70;1.30;;;5.20;99.90;;;;;;4964648;28;20542;-79
2022/04/11 08:04:35;;;;;;;1.83;1.08;;;5.20;99.90;;;;;;4984070;28;20474;-79
2022/04/11 08:07:02;;;;;;;3.10;1.25;;;5.40;99.90;;;;;;4982573;28;20054;-79
2022/04/11 08:09:28;;;;;;;3.20;1.13;;;5.30;99.90;;;;;;4980836;28;20045;-79
2022/04/11 08:11:54;;;;;;;4.43;1.20;;;6.40;99.90;;;;;;4987397;28;20520;-80
2022/04/11 08:14:20;;;;;;;4.18;1.45;;;5.50;99.90;;;;;;4981206;28;20042;-80
2022/04/11 08:16:46;;;;;;;8.43;1.65;;;5.60;99.90;;;;;;4979067;28;20094;-79
2022/04/11 08:19:11;;;;;;;2.40;0.98;;;5.70;99.90;;;;;;4981870;28;20499;-80
2022/04/11 08:21:37;;;;;;;7.00;1.73;;;5.80;99.90;;;;;;4983640;28;20502;-80
2022/04/11 08:24:03;;;;;;;2.85;0.93;;;5.90;99.90;;;;;;4979333;28;20498;-80
2022/04/11 08:26:29;;;;;;;8.93;1.60;;;6.00;99.90;;;;;;4982472;28;20038;-79
2022/04/11 08:28:54;;;;;;;4.75;1.20;;;6.10;99.90;;;;;;4980365;28;20042;-80
2022/04/11 08:31:20;;;;;;;9.10;1.40;;;6.20;99.90;;;;;;4980087;28;20046;-79
2022/04/11 08:33:46;;;;;;;4.75;1.00;;;6.30;99.90;;;;;;4978770;28;20566;-79
2022/04/11 08:36:11;;;;;;;5.68;1.52;;;6.40;99.90;;;;;;4978499;28;20565;-80
2022/04/11 08:38:37;;;;;;;4.93;1.00;;;6.40;99.90;;;;;;4985401;28;20490;-80
2022/04/11 08:41:03;;;;;;;5.70;1.55;;;6.60;99.90;;;;;;4981883;28;20518;-79
2022/04/11 08:43:30;;;;;;;4.75;1.15;;;6.60;99.90;;;;;;4981332;28;20038;-79
2022/04/11 08:46:01;;;;;;;3.50;1.60;;;6.70;99.90;;;;;;4980187;28;20129;-79
2022/04/11 08:48:26;;;;;;;5.85;2.13;;;6.80;99.90;;;;;;4987122;28;20493;-79
2022/04/11 08:50:52;;;;;;;6.10;1.80;;;6.70;99.90;;;;;;4978305;28;20038;-79
2022/04/11 08:53:21;;;;;;;4.72;1.40;;;6.80;99.90;;;;;;4980514;28;20051;-80
2022/04/11 08:55:48;;;;;;;2.60;1.42;;;6.80;99.90;;;;;;4981387;28;20065;-79
2022/04/11 08:58:14;;;;;;;4.97;1.98;;;7.00;99.90;;;;;;4981153;28;20062;-80
2022/04/11 09:00:39;;;;;;;5.03;2.08;;;7.00;99.90;;;;;;4982555;28;20046;-80
2022/04/11 09:03:06;;;;;;;4.95;1.73;;;7.10;99.90;;;;;;4963898;28;20549;-79
2022/04/11 09:05:32;;;;;;;4.32;1.58;;;7.10;99.90;;;;;;4978810;28;20110;-79
2022/04/11 09:07:59;;;;;;;3.15;1.02;;;7.20;99.90;;;;;;4983620;28;20556;-79
2022/04/11 09:10:35;;;;;;;5.88;2.67;;;7.30;99.90;;;;;;4987070;28;20125;-80
2022/04/11 09:13:03;;;;;;;4.47;1.40;;;8.00;99.90;;;;;;4978545;28;20042;-80
2022/04/11 09:15:36;;;;;;;4.53;1.20;;;7.60;99.90;;;;;;4963759;28;20050;-79
2022/04/11 09:18:02;;;;;;;4.78;1.90;;;7.50;99.90;;;;;;4980850;28;20113;-80
2022/04/11 09:20:29;;;;;;;3.47;1.15;;;7.70;99.90;;;;;;4986482;28;20125;-79
2022/04/11 09:22:55;;;;;;;10.98;6.13;;;7.70;99.90;;;;;;4953105;28;1022994;-79
2022/04/11 09:25:22;;;;;;;3.55;1.05;;;7.80;99.90;;;;;;4981007;28;20181;-79
2022/04/11 09:28:02;;;;;;;7.10;1.33;;;8.00;99.90;;;;;;4961739;28;20097;-80
2022/04/11 09:30:31;;;;;;;3.85;1.35;;;8.10;99.90;;;;;;4981119;28;20077;-80
2022/04/11 09:32:56;;;;;;;2.70;1.20;;;8.20;99.90;;;;;;4982059;28;20498;-79
2022/04/11 09:35:44;;;;;;;1.42;0.85;;;8.20;99.90;;;;;;4982328;28;20046;-79
2022/04/11 09:38:13;;;;;;;5.13;1.17;;;8.30;99.90;;;;;;4981807;28;20042;-79
2022/04/11 09:40:48;;;;;;;4.25;0.90;;;8.30;99.90;;;;;;4977635;28;20197;-80
2022/04/11 09:43:14;;;;;;;5.28;1.25;;;8.40;99.90;;;;;;4979263;28;20096;-80
2022/04/11 09:45:45;;;;;;;5.65;1.27;;;8.50;99.90;;;;;;4981198;28;20044;-80
2022/04/11 09:48:15;;;;;;;2.67;1.20;;;8.50;99.90;;;;;;4982414;28;20049;-80
2022/04/11 09:50:40;;;;;;;3.47;0.90;;;8.60;99.90;;;;;;4982085;28;20038;-78
2022/04/11 09:53:17;;;;;;;3.45;0.70;;;8.70;99.90;;;;;;4982579;28;20045;-78
2022/04/11 09:55:46;;;;;;;2.90;0.80;;;8.90;99.90;;;;;;4978583;28;20050;-78
2022/04/11 09:58:13;;;;;;;3.53;0.93;;;9.00;99.90;;;;;;4978865;28;20090;-78
2022/04/11 10:00:40;;;;;;;2.40;1.00;;;9.00;99.90;;;;;;4979571;28;20057;-79
2022/04/11 10:03:06;;;;;;;2.85;1.20;;;9.20;99.90;;;;;;4980303;28;20042;-78
2022/04/11 10:05:37;;;;;;;7.07;1.02;;;9.20;99.90;;;;;;4977732;28;20105;-79
2022/04/11 10:08:04;;;;;;;1.92;1.38;;;9.30;99.90;;;;;;4980025;28;20054;-79
2022/04/11 10:10:34;;;;;;;6.55;1.13;;;9.30;99.90;;;;;;4979785;28;20402;-78
2022/04/11 10:13:00;;;;;;;4.53;1.20;;;10.90;99.90;;;;;;4977516;28;20379;-78
2022/04/11 10:15:25;;;;;;;3.72;1.20;;;9.50;99.90;;;;;;4984544;28;20039;-79
2022/04/11 10:17:53;;;;;;;3.42;1.23;;;9.50;99.90;;;;;;4984643;28;20449;-79
2022/04/11 10:20:37;;;;;;;2.33;1.20;;;9.70;99.90;;;;;;4975817;28;20101;-79
2022/04/11 10:23:14;;;;;;;3.17;1.20;;;9.80;99.90;;;;;;4980191;28;20076;-78
2022/04/11 10:25:49;;;;;;;1.90;1.05;;;9.90;99.90;;;;;;4978403;28;20047;-79
2022/04/11 10:28:18;;;;;;;3.00;1.10;;;10.00;99.90;;;;;;4976371;28;20518;-78
2022/04/11 10:30:46;;;;;;;3.72;1.80;;;10.00;99.90;;;;;;4980373;28;20434;-78
2022/04/11 10:33:11;;;;;;;4.35;1.17;;;10.00;99.90;;;;;;4980381;28;20061;-80
2022/04/11 10:35:44;;;;;;;2.65;1.52;;;10.10;99.90;;;;;;4976645;28;20043;-80
2022/04/11 10:38:12;;;;;;;5.15;1.40;;;11.00;99.90;;;;;;4978153;28;20111;-78
2022/04/11 10:40:48;;;;;;;5.85;1.40;;;10.20;99.90;;;;;;4978677;28;20089;-79
2022/04/11 10:43:16;;;;;;;3.78;1.08;;;10.30;99.90;;;;;;4980626;28;20078;-78
2022/04/11 10:45:56;;;;;;;2.97;1.15;;;10.40;99.90;;;;;;4961504;28;20043;-78
2022/04/11 10:48:58;;;;;;;3.05;1.30;;;10.50;99.90;;;;;;4977672;28;20124;-78
2022/04/11 10:51:24;;;;;;;2.30;1.33;;;10.50;99.90;;;;;;4987005;28;20046;-79
2022/04/11 10:54:28;;;;;;;3.80;1.48;;;10.50;99.90;;;;;;4963411;28;20053;-78
2022/04/11 10:56:55;;;;;;;5.65;1.95;;;10.50;99.90;;;;;;4908177;29;20132;-79
2022/04/11 10:59:27;;;;;;;5.70;1.88;;;10.70;99.90;;;;;;4910096;29;20627;-78
2022/04/11 11:01:55;;;;;;;4.38;1.80;;;10.90;99.90;;;;;;4949253;28;20482;-78
2022/04/11 11:04:22;;;;;;;6.10;2.13;;;10.90;99.90;;;;;;4979707;28;20050;-78
2022/04/11 11:06:48;;;;;;;2.53;2.22;;;11.00;99.90;;;;;;4977873;28;20630;-78
2022/04/11 11:09:18;;;;;;;3.13;1.98;;;11.10;99.90;;;;;;4975882;28;20091;-79
2022/04/11 11:11:45;;;;;;;2.97;1.80;;;11.20;99.90;;;;;;4987114;28;20077;-78
2022/04/11 11:14:40;;;;;;;3.45;1.50;;;11.40;99.20;;;;;;4981680;28;20038;-79
2022/04/11 11:17:06;;;;;;;3.60;1.67;;;11.40;98.50;;;;;;4976784;28;20479;-79
2022/04/11 11:20:04;;;;;;;2.78;1.67;;;11.50;99.10;;;;;;4976795;28;20097;-79
2022/04/11 11:22:34;;;;;;;2.90;1.90;;;11.60;99.60;;;;;;4986639;28;20042;-78
2022/04/11 11:25:17;;;;;;;1.50;1.40;;;11.70;99.90;;;;;;4976968;28;20050;-79
2022/04/11 11:27:44;;;;;;;6.32;2.00;;;11.90;99.80;;;;;;4982828;28;20039;-78
2022/04/11 11:30:11;;;;;;;4.63;1.45;;;12.00;99.80;;;;;;4984043;28;20074;-79
2022/04/11 11:32:39;;;;;;;3.55;1.60;;;12.10;99.90;;;;;;4979539;28;20039;-78
2022/04/11 11:35:06;;;;;;;1.85;1.42;;;12.10;99.20;;;;;;4980931;28;20051;-78
2022/04/11 11:37:31;;;;;;;4.63;2.33;;;12.20;99.00;;;;;;4987163;28;20333;-78
2022/04/11 11:40:01;;;;;;;3.55;1.77;;;12.30;98.80;;;;;;4976531;28;20113;-77
2022/04/11 11:42:36;;;;;;;4.25;1.88;;;12.30;97.40;;;;;;4976438;28;20047;-79
2022/04/11 11:45:02;;;;;;;5.25;1.70;;;12.30;97.10;;;;;;4975233;28;20046;-78
2022/04/11 11:47:28;;;;;;;5.35;1.90;;;12.30;97.40;;;;;;4977382;28;20452;-78
2022/04/11 11:50:05;;;;;;;3.38;1.58;;;12.50;97.80;;;;;;4982175;28;20054;-79
2022/04/11 11:52:31;;;;;;;1.90;1.50;;;12.70;98.10;;;;;;4958920;28;20094;-78
2022/04/11 11:54:56;;;;;;;5.78;2.00;;;12.80;97.90;;;;;;4975831;28;20446;-78
2022/04/11 11:57:25;;;;;;;4.32;1.98;;;13.00;98.10;;;;;;4977272;28;20049;-78
2022/04/11 11:59:59;;;;;;;4.10;1.55;;;13.00;97.10;;;;;;4961048;28;20074;-79
2022/04/11 12:05:27;;;;;;;3.33;1.83;;;13.20;96.20;;;;;;4982442;28;20094;-78
2022/04/11 12:08:05;;;;;;;4.30;1.70;;;13.30;96.30;;;;;;4978235;28;20058;-77
2022/04/11 12:10:31;;;;;;;4.55;1.85;;;13.30;94.90;;;;;;4978955;28;20134;-78
2022/04/11 12:12:56;;;;;;;3.10;2.22;;;13.30;95.10;;;;;;4981545;28;20363;-80
2022/04/11 12:15:23;;;;;;;6.55;2.67;;;13.40;95.20;;;;;;4983043;28;20097;-78
2022/04/11 12:17:59;;;;;;;4.38;1.90;;;13.50;95.00;;;;;;4981733;28;20042;-77
2022/04/11 12:20:28;;;;;;;5.15;1.58;;;13.60;95.00;;;;;;4984779;28;20117;-78
2022/04/11 12:23:07;;;;;;;4.95;2.17;;;13.80;95.60;;;;;;4981225;28;20094;-78
2022/04/11 12:25:34;;;;;;;5.80;2.30;;;14.00;94.60;;;;;;4983432;28;20529;-77
2022/04/11 12:28:12;;;;;;;3.35;2.10;;;14.10;94.80;;;;;;4978282;28;20082;-77
2022/04/11 12:30:41;;;;;;;5.00;1.90;;;14.20;93.70;;;;;;4978831;28;20053;-77
2022/04/11 12:33:07;;;;;;;6.22;1.80;;;14.40;94.00;;;;;;4979560;28;20050;-78
2022/04/11 12:35:33;;;;;;;4.93;2.08;;;14.40;93.90;;;;;;4982412;28;20038;-78
2022/04/11 12:38:00;;;;;;;3.22;1.80;;;14.40;92.70;;;;;;4962854;28;20070;-78
2022/04/11 12:40:45;;;;;;;6.20;2.17;;;14.10;90.80;;;;;;4982611;28;20050;-77
2022/04/11 12:43:12;;;;;;;3.50;2.05;;;14.20;92.30;;;;;;4979102;28;20550;-78
2022/04/11 12:45:38;;;;;;;5.38;2.35;;;14.20;91.80;;;;;;4978269;28;20093;-77
2022/04/11 12:48:06;;;;;;;13.38;2.30;;;14.30;91.30;;;;;;4980171;28;20046;-78
2022/04/11 12:50:33;;;;;;;4.68;2.13;;;14.30;91.10;;;;;;4978212;28;20046;-78
2022/04/11 12:53:00;;;;;;;3.13;2.28;;;14.30;91.40;;;;;;4980006;28;20092;-79
2022/04/11 12:55:28;;;;;;;3.00;2.00;;;14.30;91.80;;;;;;4983799;28;20046;-78
2022/04/11 12:58:08;;;;;;;5.50;1.45;;;14.40;92.20;;;;;;4981264;28;20446;-78
2022/04/11 13:00:35;;;;;;;2.90;2.13;;;14.70;92.50;;;;;;4978867;28;20287;-77